Time;durP1;ratioP1;P1;durP2;ratioP2;P2;SDS_P1;SDS_P2;PMS_P1;PMS_P2;Temp;Humidity;BMP_temperature;BMP_pressure;BME280_temperature;BME280_humidity;BME280_pressure;Samples;Min_cycle;Max_cycle;Signal;HPM_P1;HPM_P2
2022/04/09 00:01:04;;;;;;;2.40;1.50;;;16.00;54.50;17.30;99449.00;;;;5049431;28;20210;-51
2022/04/09 00:03:29;;;;;;;1.97;1.70;;;16.00;54.70;17.30;99464.00;;;;5061890;28;20225;-50
2022/04/09 00:05:55;;;;;;;1.90;1.70;;;16.00;54.70;17.20;99465.00;;;;5059879;28;20163;-50
2022/04/09 00:08:21;;;;;;;1.60;1.50;;;15.90;54.60;17.20;99464.00;;;;5060145;28;20182;-51
2022/04/09 00:10:46;;;;;;;2.30;1.53;;;15.90;54.70;17.00;99475.00;;;;5057372;28;20182;-51
2022/04/09 00:13:12;;;;;;;1.70;1.60;;;15.90;54.70;17.20;99473.00;;;;5056816;28;20173;-50
2022/04/09 00:15:38;;;;;;;1.93;1.70;;;15.90;54.60;17.20;99481.00;;;;5052327;28;20175;-50
2022/04/09 00:18:04;;;;;;;1.60;1.50;;;15.90;54.50;17.20;99489.00;;;;5047437;28;20444;-49
2022/04/09 00:20:29;;;;;;;1.67;1.57;;;15.90;54.50;17.10;99486.00;;;;5051009;28;20248;-50
2022/04/09 00:22:55;;;;;;;1.60;1.50;;;15.90;54.70;17.10;99492.00;;;;5047779;28;20220;-50
2022/04/09 00:25:24;;;;;;;1.77;1.67;;;15.90;54.60;17.10;99499.00;;;;5047248;28;20202;-51
2022/04/09 00:27:51;;;;;;;1.80;1.60;;;15.90;54.50;17.10;99512.00;;;;5047442;28;20205;-51
2022/04/09 00:30:16;;;;;;;1.60;1.50;;;15.90;54.50;17.10;99514.00;;;;5045748;28;20198;-49
2022/04/09 00:32:42;;;;;;;1.90;1.70;;;15.90;54.50;17.10;99529.00;;;;5049142;28;20234;-51
2022/04/09 00:35:08;;;;;;;1.57;1.47;;;15.90;54.60;17.00;99531.00;;;;5049275;28;20554;-50
2022/04/09 00:37:44;;;;;;;1.90;1.73;;;15.90;54.60;17.00;99528.00;;;;5047027;28;20249;-50
2022/04/09 00:40:14;;;;;;;2.27;1.63;;;15.90;54.60;17.00;99538.00;;;;5047201;28;20193;-51
2022/04/09 00:42:42;;;;;;;1.57;1.47;;;15.80;54.60;17.00;99530.00;;;;5047151;28;20236;-51
2022/04/09 00:45:10;;;;;;;1.70;1.60;;;15.80;54.50;17.00;99551.00;;;;5047141;28;20194;-51
2022/04/09 00:47:36;;;;;;;1.63;1.53;;;15.80;54.50;17.00;99552.00;;;;5047071;28;20163;-50
2022/04/09 00:50:03;;;;;;;1.60;1.50;;;15.70;54.50;17.00;99567.00;;;;5046746;28;20277;-49
2022/04/09 00:52:30;;;;;;;1.70;1.50;;;15.70;54.50;17.00;99554.00;;;;5046881;28;20265;-51
2022/04/09 00:54:56;;;;;;;1.70;1.60;;;15.70;54.60;16.90;99575.00;;;;5029252;28;20696;-50
2022/04/09 00:57:22;;;;;;;1.80;1.57;;;15.70;54.50;17.00;99576.00;;;;5028631;28;20174;-51
2022/04/09 00:59:49;;;;;;;1.80;1.70;;;15.70;54.40;16.90;99582.00;;;;5029359;28;20186;-49
2022/04/09 01:02:14;;;;;;;1.90;1.57;;;15.60;54.50;16.90;99586.00;;;;5045104;28;20312;-49
2022/04/09 01:04:43;;;;;;;1.70;1.60;;;15.70;54.50;16.90;99591.00;;;;5046745;28;20659;-51
2022/04/09 01:07:09;;;;;;;1.87;1.50;;;15.60;54.50;16.90;99603.00;;;;5046533;28;20163;-51
2022/04/09 01:09:35;;;;;;;1.70;1.60;;;15.60;54.50;16.90;99598.00;;;;5047180;28;20475;-50
2022/04/09 01:12:02;;;;;;;1.70;1.60;;;15.60;54.50;16.90;99594.00;;;;5046201;28;20166;-50
2022/04/09 01:14:29;;;;;;;2.07;1.60;;;15.50;54.50;16.90;99607.00;;;;5028999;28;20178;-50
2022/04/09 01:16:55;;;;;;;1.60;1.50;;;15.60;54.60;16.80;99616.00;;;;5046517;28;20189;-50
2022/04/09 01:19:21;;;;;;;1.97;1.60;;;15.60;54.50;16.80;99628.00;;;;5046754;28;20543;-51
2022/04/09 01:21:47;;;;;;;1.80;1.67;;;15.50;54.60;16.80;99635.00;;;;5046743;28;20174;-49
2022/04/09 01:24:13;;;;;;;2.30;1.67;;;15.60;54.60;16.80;99644.00;;;;5046602;28;20200;-50
2022/04/09 01:26:39;;;;;;;1.40;1.30;;;15.50;54.60;16.80;99646.00;;;;5046404;28;20170;-51
2022/04/09 01:29:05;;;;;;;1.40;1.30;;;15.60;54.60;16.80;99646.00;;;;5029205;28;20178;-51
2022/04/09 01:31:31;;;;;;;1.70;1.60;;;15.60;54.50;16.80;99649.00;;;;5045161;28;20785;-50
2022/04/09 01:33:56;;;;;;;1.70;1.60;;;15.50;54.50;16.80;99657.00;;;;5046869;28;20182;-51
2022/04/09 01:36:22;;;;;;;1.87;1.70;;;15.50;54.40;16.70;99656.00;;;;5046241;28;20538;-51
2022/04/09 01:38:48;;;;;;;1.50;1.40;;;15.50;54.40;16.70;99665.00;;;;5046219;28;20325;-51
2022/04/09 01:41:13;;;;;;;1.60;1.50;;;15.40;54.50;16.70;99669.00;;;;5044764;28;20517;-51
2022/04/09 01:43:41;;;;;;;1.53;1.43;;;15.40;54.60;16.70;99665.00;;;;5046428;28;20198;-51
2022/04/09 01:46:07;;;;;;;2.23;1.60;;;15.40;54.60;16.70;99678.00;;;;5045830;28;20261;-51
2022/04/09 01:48:33;;;;;;;1.53;1.43;;;15.40;54.70;16.70;99675.00;;;;5046161;28;20246;-51
2022/04/09 01:50:58;;;;;;;1.63;1.53;;;15.40;54.50;16.70;99665.00;;;;5046276;28;20200;-49
2022/04/09 01:53:24;;;;;;;1.70;1.60;;;15.40;54.80;16.60;99674.00;;;;5046320;28;20545;-49
2022/04/09 01:55:50;;;;;;;1.97;1.53;;;15.30;54.90;16.60;99697.00;;;;5044831;28;20174;-50
2022/04/09 01:58:15;;;;;;;1.90;1.70;;;15.20;54.90;16.60;99694.00;;;;5046069;28;20181;-50
2022/04/09 02:00:41;;;;;;;1.67;1.50;;;15.20;54.90;16.60;99704.00;;;;5045880;28;20202;-50
2022/04/09 02:03:07;;;;;;;1.70;1.60;;;15.20;54.90;16.60;99702.00;;;;5046248;28;20673;-49
2022/04/09 02:05:34;;;;;;;1.87;1.60;;;15.10;55.30;16.50;99711.00;;;;5045941;28;20213;-50
2022/04/09 02:08:01;;;;;;;1.90;1.70;;;15.20;55.20;16.50;99716.00;;;;5046722;28;20261;-50
2022/04/09 02:10:27;;;;;;;2.27;1.47;;;15.20;55.10;16.50;99715.00;;;;5046544;28;20573;-51
2022/04/09 02:12:53;;;;;;;2.40;1.70;;;15.10;55.20;16.50;99726.00;;;;5048455;28;20559;-50
2022/04/09 02:15:19;;;;;;;1.73;1.53;;;15.10;55.10;16.50;99728.00;;;;5048884;28;20178;-51
2022/04/09 02:17:45;;;;;;;1.77;1.67;;;15.10;55.10;16.50;99729.00;;;;5049676;28;20166;-50
2022/04/09 02:20:12;;;;;;;1.70;1.60;;;15.10;55.20;16.40;99735.00;;;;5049653;28;20193;-50
2022/04/09 02:22:43;;;;;;;1.67;1.53;;;15.00;55.30;16.40;99743.00;;;;5049715;28;20255;-50
2022/04/09 02:25:12;;;;;;;1.50;1.40;;;15.10;55.20;16.40;99746.00;;;;5049601;28;20264;-50
2022/04/09 02:27:37;;;;;;;1.63;1.50;;;15.00;55.30;16.40;99750.00;;;;5049470;28;20194;-50
2022/04/09 02:30:05;;;;;;;1.80;1.70;;;15.00;55.40;16.40;99759.00;;;;5049742;28;20713;-50
2022/04/09 02:32:30;;;;;;;2.47;1.60;;;14.90;55.40;16.30;99754.00;;;;5049313;28;20198;-50
2022/04/09 02:34:56;;;;;;;2.37;1.60;;;14.90;55.40;16.30;99756.00;;;;5049242;28;20257;-50
2022/04/09 02:37:22;;;;;;;1.77;1.60;;;15.00;55.30;16.30;99764.00;;;;5047705;28;20178;-51
2022/04/09 02:39:48;;;;;;;1.87;1.77;;;15.00;55.40;16.30;99755.00;;;;5048143;28;20210;-50
2022/04/09 02:42:14;;;;;;;2.33;1.70;;;14.90;55.50;16.30;99769.00;;;;5049871;28;20204;-50
2022/04/09 02:44:40;;;;;;;1.70;1.60;;;14.90;55.40;16.30;99781.00;;;;5048377;28;20217;-50
2022/04/09 02:47:06;;;;;;;1.90;1.60;;;14.80;55.40;16.30;99783.00;;;;5049415;28;20166;-50
2022/04/09 02:49:32;;;;;;;2.40;1.70;;;14.80;55.60;16.20;99789.00;;;;5050059;28;20190;-49
2022/04/09 02:51:57;;;;;;;2.23;1.70;;;14.80;55.50;16.20;99797.00;;;;5049824;28;20740;-51
2022/04/09 02:54:23;;;;;;;2.00;1.77;;;14.80;55.50;16.20;99802.00;;;;5049556;28;20257;-50
2022/04/09 02:56:49;;;;;;;2.10;1.63;;;14.80;55.50;16.20;99798.00;;;;5049395;28;20722;-51
2022/04/09 02:59:15;;;;;;;1.77;1.50;;;14.80;55.50;16.20;99798.00;;;;5049548;28;20301;-50
2022/04/09 03:01:42;;;;;;;2.53;1.63;;;14.70;55.50;16.20;99801.00;;;;5048824;28;20190;-51
2022/04/09 03:04:08;;;;;;;2.33;1.60;;;14.70;55.50;16.10;99809.00;;;;5048977;28;20232;-50
2022/04/09 03:06:33;;;;;;;6.43;1.73;;;14.70;55.50;16.10;99820.00;;;;5048866;28;20175;-50
2022/04/09 03:08:59;;;;;;;3.07;1.50;;;14.70;55.70;16.10;99828.00;;;;5048978;28;20167;-51
2022/04/09 03:11:25;;;;;;;2.40;1.63;;;14.70;55.80;16.10;99829.00;;;;5049006;28;20656;-50
2022/04/09 03:13:51;;;;;;;3.80;1.90;;;14.70;56.20;16.10;99827.00;;;;5049199;28;20705;-50
2022/04/09 03:16:16;;;;;;;3.83;1.80;;;14.70;56.30;16.10;99842.00;;;;5048480;28;20175;-50
2022/04/09 03:18:42;;;;;;;3.07;1.60;;;14.70;56.20;16.00;99838.00;;;;5048712;28;20220;-50
2022/04/09 03:21:08;;;;;;;2.90;1.70;;;14.70;56.80;16.00;99847.00;;;;5048794;28;20594;-49
2022/04/09 03:23:33;;;;;;;3.07;1.80;;;14.70;56.20;16.00;99848.00;;;;5046480;28;20214;-49
2022/04/09 03:25:59;;;;;;;3.87;1.60;;;14.70;56.20;16.00;99856.00;;;;5047825;28;20194;-52
2022/04/09 03:28:25;;;;;;;2.63;1.63;;;14.60;56.20;16.00;99856.00;;;;5048253;28;20705;-51
2022/04/09 03:30:51;;;;;;;5.43;1.77;;;14.60;56.80;16.00;99856.00;;;;5048007;28;20190;-51
2022/04/09 03:33:17;;;;;;;8.83;2.10;;;14.70;56.00;16.00;99874.00;;;;5047472;28;20171;-50
2022/04/09 03:35:43;;;;;;;2.63;1.70;;;14.70;56.30;16.00;99867.00;;;;5046374;28;20171;-50
2022/04/09 03:38:11;;;;;;;6.27;2.07;;;14.70;55.90;16.00;99857.00;;;;5046534;28;20213;-50
2022/04/09 03:40:38;;;;;;;6.23;1.87;;;14.70;56.00;16.00;99798.00;;;;5029837;28;20221;-50
2022/04/09 03:43:04;;;;;;;4.07;1.80;;;14.70;55.80;16.00;99864.00;;;;5046565;28;20197;-51
2022/04/09 03:45:29;;;;;;;4.37;1.80;;;14.70;55.80;16.00;99873.00;;;;5047626;28;20192;-50
2022/04/09 03:47:55;;;;;;;3.73;1.80;;;14.70;55.60;16.00;99883.00;;;;5047387;28;20643;-50
2022/04/09 03:50:21;;;;;;;2.30;1.70;;;14.70;55.60;15.90;99873.00;;;;5047377;28;20440;-50
2022/04/09 03:52:46;;;;;;;3.60;1.83;;;14.70;55.60;16.00;99887.00;;;;5053875;28;20186;-49
2022/04/09 03:55:13;;;;;;;3.03;1.77;;;14.70;55.50;15.90;99886.00;;;;5065938;28;20202;-50
2022/04/09 03:57:38;;;;;;;1.90;1.70;;;14.70;55.50;15.90;99892.00;;;;5067026;28;20189;-51
2022/04/09 04:00:05;;;;;;;4.07;1.70;;;14.70;55.50;15.90;99907.00;;;;5067521;28;20201;-51
2022/04/09 04:02:31;;;;;;;2.90;1.77;;;14.70;55.50;15.90;99899.00;;;;5066764;28;20209;-51
2022/04/09 04:05:02;;;;;;;2.33;1.60;;;14.70;55.30;15.90;99904.00;;;;5066949;28;20680;-51
2022/04/09 04:07:31;;;;;;;3.60;1.60;;;14.60;55.20;15.90;99908.00;;;;5066602;28;20656;-49
2022/04/09 04:10:04;;;;;;;2.17;1.80;;;14.60;55.20;15.90;99906.00;;;;5067016;28;20201;-50
2022/04/09 04:12:29;;;;;;;2.57;1.90;;;14.60;55.40;15.90;99906.00;;;;5067172;28;20414;-51
2022/04/09 04:14:55;;;;;;;2.40;1.90;;;14.60;55.40;15.90;99913.00;;;;5067016;28;20653;-50
2022/04/09 04:17:21;;;;;;;2.67;1.70;;;14.50;55.50;15.80;99913.00;;;;5066210;28;20230;-50
2022/04/09 04:19:46;;;;;;;4.50;1.80;;;14.50;55.60;15.80;99918.00;;;;5070292;28;20197;-50
2022/04/09 04:22:12;;;;;;;3.57;2.00;;;14.50;55.80;15.80;99920.00;;;;5080883;28;20465;-50
2022/04/09 04:24:38;;;;;;;12.27;2.30;;;14.70;55.70;15.80;99929.00;;;;5080394;28;20202;-50
2022/04/09 04:27:05;;;;;;;8.93;2.50;;;14.90;55.60;15.90;99933.00;;;;5079064;28;20162;-50
2022/04/09 04:29:31;;;;;;;10.40;2.30;;;15.10;55.30;16.00;99933.00;;;;5079134;28;20197;-49
2022/04/09 04:31:57;;;;;;;9.17;2.00;;;15.40;55.10;16.10;99943.00;;;;5074794;28;20181;-50
2022/04/09 04:34:23;;;;;;;7.67;2.20;;;15.70;54.70;16.20;99945.00;;;;5069574;28;20189;-51
2022/04/09 04:36:48;;;;;;;5.37;2.23;;;16.00;54.30;16.40;99952.00;;;;5064167;28;20199;-50
2022/04/09 04:39:14;;;;;;;3.50;2.17;;;16.30;53.90;16.60;99949.00;;;;5066362;28;20154;-51
2022/04/09 04:41:40;;;;;;;7.43;2.17;;;16.60;53.50;16.80;99961.00;;;;5066714;28;20178;-51
2022/04/09 04:44:06;;;;;;;8.33;2.10;;;16.90;53.50;17.00;99961.00;;;;5067066;28;20380;-51
2022/04/09 04:46:33;;;;;;;8.83;2.27;;;17.10;53.30;16.90;99970.00;;;;5065597;28;20242;-50
2022/04/09 04:48:59;;;;;;;5.87;1.97;;;17.20;53.30;17.30;99972.00;;;;5066084;28;20189;-50
2022/04/09 04:51:25;;;;;;;7.83;2.13;;;17.30;53.40;17.40;99969.00;;;;5066401;28;20217;-50
2022/04/09 04:53:50;;;;;;;4.87;2.30;;;17.30;53.30;17.50;99973.00;;;;5066180;28;20552;-48
2022/04/09 04:56:16;;;;;;;5.10;2.20;;;17.40;53.50;17.50;99992.00;;;;5065644;28;20197;-49
2022/04/09 04:58:42;;;;;;;5.07;2.20;;;17.30;53.40;17.60;99996.00;;;;5065626;28;20193;-50
2022/04/09 05:01:07;;;;;;;6.70;2.07;;;17.30;53.40;17.60;99990.00;;;;5065839;28;20209;-49
2022/04/09 05:03:35;;;;;;;4.87;1.90;;;17.30;53.50;17.70;100001.00;;;;5065892;28;20208;-49
2022/04/09 05:06:01;;;;;;;7.30;2.07;;;17.30;53.60;17.70;99999.00;;;;5065905;28;20427;-49
2022/04/09 05:08:27;;;;;;;3.80;2.00;;;17.30;53.80;17.70;100005.00;;;;5065674;28;20170;-50
2022/04/09 05:10:53;;;;;;;4.77;2.03;;;17.30;53.80;17.80;100005.00;;;;5065763;28;20201;-49
2022/04/09 05:13:18;;;;;;;5.53;1.90;;;17.30;53.80;17.80;100013.00;;;;5066317;28;20170;-50
2022/04/09 05:15:44;;;;;;;3.97;2.00;;;17.20;53.80;17.80;100015.00;;;;5065805;28;20397;-50
2022/04/09 05:18:10;;;;;;;3.57;1.97;;;17.20;53.90;17.80;100019.00;;;;5065125;28;20170;-49
2022/04/09 05:20:35;;;;;;;5.23;1.93;;;17.20;54.00;17.80;100030.00;;;;5065455;28;20214;-51
2022/04/09 05:23:02;;;;;;;5.03;2.00;;;17.10;54.10;17.80;100031.00;;;;5064291;28;20239;-50
2022/04/09 05:25:31;;;;;;;4.50;2.13;;;17.10;54.10;17.80;100032.00;;;;5065570;28;20213;-50
2022/04/09 05:28:01;;;;;;;5.30;2.00;;;17.10;54.30;17.80;100038.00;;;;5065206;28;20248;-49
2022/04/09 05:30:27;;;;;;;2.13;1.70;;;17.00;54.20;17.70;100042.00;;;;5048543;28;20212;-49
2022/04/09 05:32:53;;;;;;;5.50;2.00;;;17.00;54.20;17.70;100045.00;;;;5065760;28;20520;-49
2022/04/09 05:35:19;;;;;;;2.93;1.83;;;17.00;54.20;17.70;100050.00;;;;5065544;28;20247;-51
2022/04/09 05:37:46;;;;;;;2.37;1.63;;;16.90;54.30;17.70;100038.00;;;;5068387;28;20173;-49
2022/04/09 05:40:12;;;;;;;2.33;1.80;;;16.90;54.40;17.70;100050.00;;;;5064657;28;20201;-50
2022/04/09 05:42:38;;;;;;;2.97;2.00;;;16.90;54.50;17.60;100056.00;;;;5065306;28;20173;-50
2022/04/09 05:45:04;;;;;;;4.10;1.77;;;16.80;54.40;17.60;100051.00;;;;5065037;28;20270;-50
2022/04/09 05:47:29;;;;;;;2.17;1.77;;;16.80;54.50;17.60;100059.00;;;;5066484;28;20170;-50
2022/04/09 05:49:58;;;;;;;3.47;2.00;;;16.80;54.50;17.60;100073.00;;;;5070555;28;20189;-50
2022/04/09 05:52:24;;;;;;;2.80;1.90;;;16.70;54.50;17.60;100077.00;;;;5071798;28;20736;-48
2022/04/09 05:54:49;;;;;;;3.47;2.00;;;16.70;54.50;17.60;100069.00;;;;5069815;28;20411;-49
2022/04/09 05:57:16;;;;;;;3.00;2.00;;;16.70;54.50;17.50;100077.00;;;;5068884;28;20158;-50
2022/04/09 05:59:41;;;;;;;2.43;1.87;;;16.60;54.60;17.50;100090.00;;;;5069758;28;20863;-50
2022/04/09 06:02:07;;;;;;;2.33;1.70;;;16.60;54.60;17.50;100089.00;;;;5069644;28;20185;-50
2022/04/09 06:04:33;;;;;;;2.60;1.80;;;16.60;54.70;17.50;100092.00;;;;5069378;28;20201;-50
2022/04/09 06:07:01;;;;;;;2.57;1.70;;;16.50;54.60;17.40;100094.00;;;;5069039;28;20311;-50
2022/04/09 06:09:26;;;;;;;2.57;1.83;;;16.50;54.70;17.40;100093.00;;;;5068826;28;20258;-50
2022/04/09 06:11:52;;;;;;;2.47;1.67;;;16.50;54.70;17.40;100101.00;;;;5068069;28;20181;-50
2022/04/09 06:14:18;;;;;;;3.07;2.07;;;16.40;54.60;17.40;100109.00;;;;5068965;28;20181;-49
2022/04/09 06:16:45;;;;;;;2.70;2.20;;;16.40;54.70;17.30;100109.00;;;;5068697;28;20188;-50
2022/04/09 06:19:10;;;;;;;2.93;1.97;;;16.40;54.80;17.30;100122.00;;;;5069002;28;20231;-50
2022/04/09 06:21:36;;;;;;;2.43;1.80;;;16.30;54.70;17.30;100121.00;;;;5069047;28;20197;-51
2022/04/09 06:24:02;;;;;;;2.00;1.70;;;16.30;54.80;17.30;100123.00;;;;5068604;28;20201;-51
2022/04/09 06:26:28;;;;;;;2.60;1.90;;;16.30;54.80;17.30;100120.00;;;;5068396;28;20535;-50
2022/04/09 06:28:54;;;;;;;3.03;1.93;;;16.30;54.80;17.00;100132.00;;;;5068839;28;20176;-50
2022/04/09 06:31:20;;;;;;;2.23;1.90;;;16.20;55.10;17.20;100140.00;;;;5069035;28;20187;-50
2022/04/09 06:33:45;;;;;;;2.53;2.00;;;16.20;54.80;17.20;100137.00;;;;5068359;28;20173;-51
2022/04/09 06:36:11;;;;;;;2.13;1.73;;;16.20;54.90;17.20;100144.00;;;;5068193;28;20204;-49
2022/04/09 06:38:37;;;;;;;2.23;1.93;;;16.10;54.80;17.10;100069.00;;;;5068503;28;20187;-50
2022/04/09 06:41:03;;;;;;;2.63;1.90;;;16.10;54.80;17.10;100144.00;;;;5068792;28;20197;-50
2022/04/09 06:43:30;;;;;;;3.13;2.00;;;16.10;54.80;17.10;100147.00;;;;5069350;28;20527;-49
2022/04/09 06:45:56;;;;;;;2.67;1.80;;;16.10;54.80;17.10;100162.00;;;;5069502;28;20174;-51
2022/04/09 06:48:22;;;;;;;2.60;1.90;;;16.10;54.90;17.00;100170.00;;;;5067884;28;20173;-50
2022/04/09 06:50:48;;;;;;;2.63;1.90;;;16.10;55.10;17.00;100169.00;;;;5050451;28;20732;-50
2022/04/09 06:53:13;;;;;;;2.13;1.90;;;16.10;55.00;17.00;100181.00;;;;5061535;28;20710;-49
2022/04/09 06:55:40;;;;;;;4.40;2.07;;;16.00;55.00;17.00;100174.00;;;;5057769;28;20339;-50
2022/04/09 06:58:05;;;;;;;3.27;1.90;;;16.00;55.00;17.00;100183.00;;;;5068339;28;20169;-49
2022/04/09 07:00:34;;;;;;;2.07;1.80;;;16.00;55.00;17.00;100187.00;;;;5066947;28;20693;-50
2022/04/09 07:03:00;;;;;;;2.47;1.70;;;16.00;55.20;17.00;100179.00;;;;5068054;28;20643;-50
2022/04/09 07:05:27;;;;;;;2.57;1.90;;;15.90;55.10;16.90;100184.00;;;;5068038;28;20787;-49
2022/04/09 07:07:52;;;;;;;2.57;2.20;;;15.90;55.20;16.90;100188.00;;;;5067831;28;20185;-51
2022/04/09 07:10:18;;;;;;;3.27;2.03;;;15.90;55.30;16.90;100188.00;;;;5066795;28;20221;-49
2022/04/09 07:12:44;;;;;;;2.87;1.90;;;15.90;55.50;16.90;100202.00;;;;5068559;28;20200;-49
2022/04/09 07:15:10;;;;;;;2.53;2.00;;;15.90;55.50;16.90;100196.00;;;;5068470;28;20174;-50
2022/04/09 07:17:36;;;;;;;6.17;2.17;;;15.90;55.40;16.90;100209.00;;;;5066839;28;20180;-49
2022/04/09 07:20:06;;;;;;;4.90;2.10;;;15.90;55.50;16.90;100208.00;;;;5067447;28;20266;-49
2022/04/09 07:22:33;;;;;;;4.93;2.17;;;15.90;55.50;16.80;100218.00;;;;5066534;28;20566;-50
2022/04/09 07:24:59;;;;;;;4.03;1.90;;;15.80;55.40;16.80;100214.00;;;;5065464;28;20284;-49
2022/04/09 07:27:36;;;;;;;4.93;2.00;;;15.80;55.40;16.80;100221.00;;;;5066318;28;20176;-50
2022/04/09 07:30:04;;;;;;;2.47;1.93;;;15.80;55.40;16.80;100220.00;;;;5066967;28;20734;-50
2022/04/09 07:32:29;;;;;;;3.20;2.00;;;15.70;55.30;16.80;100233.00;;;;5067878;28;20173;-50
2022/04/09 07:34:55;;;;;;;2.73;1.80;;;15.70;55.30;16.80;100222.00;;;;5067044;28;20650;-50
2022/04/09 07:37:21;;;;;;;3.40;1.83;;;15.70;55.30;16.70;100233.00;;;;5067091;28;20162;-49
2022/04/09 07:39:47;;;;;;;3.63;2.03;;;15.70;55.30;16.70;100233.00;;;;5067796;28;20603;-51
2022/04/09 07:42:12;;;;;;;4.53;2.00;;;15.70;55.30;16.70;100238.00;;;;5067811;28;20227;-51
2022/04/09 07:44:38;;;;;;;3.17;2.00;;;15.60;55.70;16.70;100245.00;;;;5068019;28;20723;-49
2022/04/09 07:47:04;;;;;;;3.97;1.97;;;15.60;55.40;16.70;100235.00;;;;5067410;28;20173;-50
2022/04/09 07:49:29;;;;;;;3.57;2.10;;;15.60;55.20;16.50;100249.00;;;;5068066;28;20174;-52
2022/04/09 07:51:55;;;;;;;2.17;1.90;;;15.60;55.30;16.60;100258.00;;;;5066464;28;20169;-50
2022/04/09 07:54:21;;;;;;;3.20;2.30;;;15.60;55.80;16.60;100249.00;;;;5066557;28;20196;-50
2022/04/09 07:56:47;;;;;;;5.20;2.20;;;15.50;56.10;16.60;100261.00;;;;5066709;28;20173;-51
2022/04/09 07:59:12;;;;;;;7.23;2.23;;;15.50;55.90;16.60;100258.00;;;;5067228;28;20469;-49
2022/04/09 08:01:38;;;;;;;4.83;2.30;;;15.60;56.40;16.60;100255.00;;;;5061756;28;20197;-51
2022/04/09 08:04:04;;;;;;;5.53;2.40;;;15.60;57.60;16.60;100264.00;;;;5050277;28;20205;-50
2022/04/09 08:06:30;;;;;;;9.10;2.40;;;15.60;57.10;16.60;100265.00;;;;5046923;28;20253;-50
2022/04/09 08:08:55;;;;;;;4.47;2.20;;;15.60;57.80;16.60;100253.00;;;;5045308;28;20173;-50
2022/04/09 08:11:21;;;;;;;7.80;2.20;;;15.60;57.30;16.60;100258.00;;;;5045734;28;20194;-50
2022/04/09 08:13:48;;;;;;;6.20;2.33;;;15.60;57.40;16.60;100264.00;;;;5047057;28;20813;-50
2022/04/09 08:16:14;;;;;;;2.87;2.30;;;15.70;57.40;16.60;100262.00;;;;5046790;28;20182;-51
2022/04/09 08:18:39;;;;;;;4.13;1.87;;;15.70;57.60;16.60;100274.00;;;;5047057;28;20182;-51
2022/04/09 08:21:06;;;;;;;5.53;2.50;;;15.70;57.20;16.60;100272.00;;;;5055320;28;20213;-50
2022/04/09 08:23:32;;;;;;;4.53;2.10;;;15.80;57.10;16.60;100273.00;;;;5066307;28;20177;-49
2022/04/09 08:25:58;;;;;;;38.43;4.93;;;15.80;56.90;16.60;100276.00;;;;5065252;28;20556;-49
2022/04/09 08:28:26;;;;;;;53.37;6.17;;;15.80;57.80;16.60;100282.00;;;;5066171;28;20222;-49
2022/04/09 08:30:52;;;;;;;18.63;3.40;;;15.80;57.50;16.60;100267.00;;;;5065878;28;20280;-49
2022/04/09 08:33:19;;;;;;;24.03;3.70;;;15.90;57.60;16.60;100291.00;;;;5066461;28;20265;-49
2022/04/09 08:35:44;;;;;;;11.53;3.07;;;15.80;57.50;16.60;100281.00;;;;5057681;28;20219;-50
2022/04/09 08:38:10;;;;;;;11.77;3.53;;;15.80;57.20;16.60;100281.00;;;;4931783;28;20169;-50
2022/04/09 08:40:36;;;;;;;37.07;4.17;;;15.80;56.90;16.60;100272.00;;;;5083043;28;20224;-50
2022/04/09 08:43:04;;;;;;;17.20;3.60;;;15.90;57.30;16.60;100281.00;;;;5085679;28;20669;-49
2022/04/09 08:45:36;;;;;;;12.07;3.23;;;15.90;56.90;16.60;100277.00;;;;5086300;28;20229;-53
2022/04/09 08:48:05;;;;;;;16.10;2.90;;;15.90;56.50;16.60;100280.00;;;;5084542;28;20291;-49
2022/04/09 08:50:31;;;;;;;14.23;3.03;;;15.90;57.00;16.60;100307.00;;;;5088504;28;20253;-48
2022/04/09 08:52:57;;;;;;;9.40;2.80;;;15.80;57.10;16.50;100294.00;;;;5048241;28;20177;-49
2022/04/09 08:55:23;;;;;;;10.33;3.13;;;15.80;56.80;16.50;100304.00;;;;5065152;28;20288;-48
2022/04/09 08:57:49;;;;;;;7.33;3.10;;;15.80;57.00;16.50;100305.00;;;;5047973;28;20231;-50
2022/04/09 09:00:17;;;;;;;12.13;3.00;;;15.80;57.10;16.30;100319.00;;;;5065321;28;20201;-48
2022/04/09 09:02:54;;;;;;;8.77;3.00;;;15.80;57.30;16.50;100330.00;;;;5067206;28;20166;-49
2022/04/09 09:05:40;;;;;;;9.23;3.00;;;15.90;57.40;16.30;100316.00;;;;5065657;28;20189;-48
2022/04/09 09:08:07;;;;;;;7.87;2.47;;;15.80;57.50;16.50;100335.00;;;;5065371;28;20498;-49
2022/04/09 09:10:34;;;;;;;10.17;2.43;;;15.80;57.30;16.50;100336.00;;;;5065523;28;20853;-49
2022/04/09 09:13:10;;;;;;;6.63;2.53;;;15.80;57.10;16.50;100324.00;;;;5065422;28;20211;-49
2022/04/09 09:15:51;;;;;;;5.40;2.63;;;15.80;57.10;16.50;100347.00;;;;5065899;28;20169;-49
2022/04/09 09:18:25;;;;;;;6.37;2.67;;;15.80;56.90;16.50;100355.00;;;;5065685;28;20813;-49
2022/04/09 09:20:58;;;;;;;6.40;2.43;;;15.80;56.80;16.40;100356.00;;;;5065590;28;20227;-50
2022/04/09 09:23:29;;;;;;;7.20;2.43;;;15.70;56.60;16.40;100349.00;;;;5065407;28;20149;-50
2022/04/09 09:25:56;;;;;;;8.60;2.40;;;15.70;56.50;16.40;100352.00;;;;5065140;28;20166;-50
2022/04/09 09:28:29;;;;;;;4.53;2.40;;;15.70;56.60;16.40;100356.00;;;;5066752;28;20256;-49
2022/04/09 09:30:55;;;;;;;7.60;2.53;;;15.70;56.70;16.40;100366.00;;;;5067026;28;20193;-50
2022/04/09 09:33:21;;;;;;;7.23;2.43;;;15.80;56.90;16.50;100368.00;;;;5067705;28;20158;-49
2022/04/09 09:35:52;;;;;;;6.07;2.33;;;16.00;56.60;16.60;100360.00;;;;5067520;28;20169;-49
2022/04/09 09:38:27;;;;;;;5.80;2.30;;;16.10;55.90;16.80;100357.00;;;;4998817;28;20158;-49
2022/04/09 09:40:53;;;;;;;6.97;2.53;;;16.40;56.20;16.90;100354.00;;;;5067789;28;20526;-48
2022/04/09 09:43:21;;;;;;;6.30;2.20;;;16.50;56.90;17.00;100360.00;;;;5067971;28;20532;-50
2022/04/09 09:45:48;;;;;;;7.60;2.67;;;16.70;57.80;17.10;100361.00;;;;5067540;28;20182;-49
2022/04/09 09:48:21;;;;;;;15.13;3.60;;;16.90;57.90;17.20;100364.00;;;;5067353;28;20559;-49
2022/04/09 09:50:46;;;;;;;18.60;2.90;;;17.10;58.40;17.40;100362.00;;;;5065515;28;20201;-49
2022/04/09 09:53:12;;;;;;;11.10;2.70;;;17.30;57.70;17.60;100350.00;;;;5066563;28;20727;-49
2022/04/09 09:55:43;;;;;;;11.27;2.70;;;17.60;57.20;17.80;100355.00;;;;5067278;28;20177;-49
2022/04/09 09:58:13;;;;;;;10.63;3.10;;;17.90;56.90;18.00;100357.00;;;;5085918;28;20256;-49
2022/04/09 10:00:39;;;;;;;9.33;2.53;;;18.30;56.20;18.20;100344.00;;;;5101019;28;20201;-49
2022/04/09 10:03:06;;;;;;;10.03;2.90;;;18.40;55.80;18.30;100344.00;;;;5093637;28;20188;-49
2022/04/09 10:05:32;;;;;;;7.40;2.20;;;18.50;55.50;18.50;100335.00;;;;5071013;28;20330;-49
2022/04/09 10:07:59;;;;;;;8.07;2.47;;;18.60;55.20;18.60;100342.00;;;;5070028;28;20173;-50
2022/04/09 10:10:26;;;;;;;7.23;2.20;;;18.80;55.00;18.80;100335.00;;;;5087494;28;20860;-48
2022/04/09 10:12:52;;;;;;;5.60;2.60;;;18.80;54.90;18.90;100337.00;;;;5086643;28;20234;-49
2022/04/09 10:15:18;;;;;;;4.83;2.00;;;18.90;54.80;18.90;100324.00;;;;5053004;28;20181;-47
2022/04/09 10:17:43;;;;;;;8.37;2.53;;;18.90;55.10;19.10;100322.00;;;;5069739;28;20154;-48
2022/04/09 10:20:10;;;;;;;7.90;2.30;;;19.00;55.00;19.20;100321.00;;;;5087572;28;20191;-48
2022/04/09 10:22:40;;;;;;;6.77;2.20;;;19.00;54.90;19.20;100321.00;;;;5088210;28;20174;-53
2022/04/09 10:25:07;;;;;;;12.00;2.30;;;19.10;55.10;19.30;100322.00;;;;5075309;28;20285;-49
2022/04/09 10:27:44;;;;;;;8.07;2.30;;;19.10;55.20;19.30;100335.00;;;;5067291;28;20180;-49
2022/04/09 10:30:22;;;;;;;10.63;2.70;;;19.10;55.20;19.40;100335.00;;;;5068166;28;20193;-48
2022/04/09 10:32:57;;;;;;;11.70;2.83;;;19.00;55.20;19.40;100314.00;;;;5067473;28;20177;-51
2022/04/09 10:35:25;;;;;;;16.93;2.87;;;19.00;55.30;19.40;100309.00;;;;5051269;28;20913;-50
2022/04/09 10:38:09;;;;;;;14.53;2.70;;;19.00;55.90;19.40;100315.00;;;;4997050;28;20173;-49
2022/04/09 10:40:50;;;;;;;13.37;3.30;;;19.00;55.50;19.40;100315.00;;;;5050847;28;20204;-49
2022/04/09 10:43:22;;;;;;;8.17;2.43;;;18.90;55.50;19.40;100310.00;;;;5052132;28;20200;-49
2022/04/09 10:46:06;;;;;;;11.53;2.60;;;18.80;55.40;19.40;100307.00;;;;5052358;28;20183;-49
2022/04/09 10:48:33;;;;;;;10.87;3.00;;;18.80;55.40;19.40;100316.00;;;;5051179;28;20247;-48